Time;durP1;ratioP1;P1;durP2;ratioP2;P2;SDS_P1;SDS_P2;PMS_P1;PMS_P2;Temp;Humidity;BMP_temperature;BMP_pressure;BME280_temperature;BME280_humidity;BME280_pressure;Samples;Min_cycle;Max_cycle;Signal;HPM_P1;HPM_P2
2022/09/28 00:00:31;;;;;;;6.43;1.63;;;20.10;69.10;;;;;;5039821;28;20069;-58
2022/09/28 00:02:57;;;;;;;5.45;1.40;;;20.10;69.20;;;;;;5045997;28;20558;-58
2022/09/28 00:05:25;;;;;;;6.15;1.45;;;20.10;70.20;;;;;;5044712;28;20052;-58
2022/09/28 00:07:52;;;;;;;6.75;1.42;;;20.00;69.10;;;;;;5046190;28;20449;-58
2022/09/28 00:10:21;;;;;;;6.32;1.60;;;20.00;69.10;;;;;;5047321;28;20037;-58
2022/09/28 00:12:48;;;;;;;5.90;1.50;;;20.00;69.10;;;;;;5049294;28;20032;-58
2022/09/28 00:15:13;;;;;;;5.07;1.50;;;20.00;69.10;;;;;;5049619;28;20017;-58
2022/09/28 00:17:39;;;;;;;6.97;1.73;;;20.00;69.20;;;;;;5046403;28;20091;-58
2022/09/28 00:20:05;;;;;;;4.32;1.35;;;20.00;69.20;;;;;;5048635;28;20036;-58
2022/09/28 00:22:31;;;;;;;4.82;1.48;;;20.00;69.20;;;;;;5049155;28;20042;-58
2022/09/28 00:24:56;;;;;;;5.07;1.50;;;20.00;69.20;;;;;;5047801;28;20524;-58
2022/09/28 00:27:22;;;;;;;6.38;1.70;;;20.00;69.20;;;;;;5048705;28;20581;-58
2022/09/28 00:29:47;;;;;;;6.22;1.95;;;20.00;69.20;;;;;;5048724;28;20021;-58
2022/09/28 00:32:14;;;;;;;5.63;1.65;;;20.00;69.20;;;;;;5047394;28;20017;-58
2022/09/28 00:34:42;;;;;;;6.68;1.50;;;20.00;69.20;;;;;;5047699;28;20537;-58
2022/09/28 00:37:08;;;;;;;4.57;1.55;;;20.00;69.20;;;;;;5049402;28;20056;-59
2022/09/28 00:39:34;;;;;;;3.35;1.23;;;20.00;69.20;;;;;;5049008;28;20060;-58
2022/09/28 00:42:01;;;;;;;7.07;1.58;;;20.00;69.20;;;;;;5044747;28;20022;-58
2022/09/28 00:44:46;;;;;;;4.85;1.27;;;19.90;69.10;;;;;;5049411;28;20033;-58
2022/09/28 00:47:22;;;;;;;5.47;1.60;;;19.90;69.10;;;;;;5046656;28;20075;-58
2022/09/28 00:49:56;;;;;;;4.55;1.25;;;19.90;69.10;;;;;;5047200;28;20028;-58
2022/09/28 00:52:26;;;;;;;6.40;1.53;;;19.90;69.30;;;;;;5047490;28;20494;-58
2022/09/28 00:54:52;;;;;;;5.28;1.40;;;19.90;69.10;;;;;;5048443;28;20033;-59
2022/09/28 00:57:18;;;;;;;5.75;1.52;;;19.90;69.10;;;;;;5047182;28;20113;-58
2022/09/28 00:59:43;;;;;;;4.53;1.33;;;19.90;69.10;;;;;;5047749;28;20033;-58
2022/09/28 01:02:09;;;;;;;5.22;1.33;;;19.90;69.10;;;;;;5046792;28;20048;-58
2022/09/28 01:04:35;;;;;;;4.60;1.50;;;19.90;69.20;;;;;;5048151;28;20072;-58
2022/09/28 01:07:02;;;;;;;5.32;1.60;;;19.90;69.10;;;;;;5047104;28;20013;-58
2022/09/28 01:09:27;;;;;;;7.38;1.63;;;19.90;69.20;;;;;;5045405;28;20027;-58
2022/09/28 01:11:54;;;;;;;5.45;1.30;;;19.90;69.20;;;;;;5046742;28;20029;-58
2022/09/28 01:14:19;;;;;;;7.30;1.60;;;19.90;69.20;;;;;;5046527;28;20021;-58
2022/09/28 01:17:14;;;;;;;6.13;1.45;;;19.90;69.20;;;;;;5047032;28;20110;-58
2022/09/28 01:19:50;;;;;;;4.30;1.60;;;19.90;69.20;;;;;;5044417;28;20047;-58
2022/09/28 01:22:18;;;;;;;5.35;1.42;;;19.90;69.30;;;;;;5045628;28;20457;-58
2022/09/28 01:24:45;;;;;;;6.28;1.40;;;19.80;69.20;;;;;;5047746;28;20036;-58
2022/09/28 01:30:24;;;;;;;3.65;1.30;;;19.90;69.30;;;;;;4879305;23;20158;-58
2022/09/28 01:33:20;;;;;;;5.50;1.40;;;19.90;69.30;;;;;;4947062;28;20062;-58
2022/09/28 01:36:18;;;;;;;4.88;1.58;;;19.80;69.30;;;;;;4939305;28;20031;-58
2022/09/28 01:38:51;;;;;;;3.90;1.30;;;19.80;69.20;;;;;;4932782;29;20130;-58
2022/09/28 01:41:16;;;;;;;5.57;1.40;;;19.80;69.20;;;;;;4955692;28;20031;-58
2022/09/28 01:43:46;;;;;;;7.60;1.40;;;19.80;69.20;;;;;;4932739;28;20562;-57
2022/09/28 01:46:17;;;;;;;5.72;1.52;;;19.80;69.20;;;;;;4931613;29;20063;-58
2022/09/28 01:48:54;;;;;;;3.50;1.30;;;19.80;69.20;;;;;;4953501;28;20392;-58
2022/09/28 01:51:48;;;;;;;3.47;1.10;;;19.80;69.30;;;;;;4940154;28;20043;-58
2022/09/28 01:54:38;;;;;;;5.20;1.30;;;19.80;69.20;;;;;;4927015;28;20035;-57
2022/09/28 01:57:10;;;;;;;4.22;1.30;;;19.80;69.40;;;;;;4919179;28;20058;-58
2022/09/28 01:59:36;;;;;;;4.88;1.30;;;19.80;69.30;;;;;;4955460;28;20055;-58
2022/09/28 02:02:07;;;;;;;4.43;1.45;;;19.70;69.30;;;;;;4945040;28;20059;-58
2022/09/28 02:04:36;;;;;;;5.55;1.30;;;19.70;69.30;;;;;;4929469;29;20067;-58
2022/09/28 02:07:12;;;;;;;5.28;1.50;;;19.70;69.30;;;;;;4951121;28;20155;-58
2022/09/28 02:09:47;;;;;;;4.07;1.00;;;19.70;69.30;;;;;;4961369;28;20031;-58
2022/09/28 02:12:36;;;;;;;;;;;19.70;69.30;;;;;;4959882;28;20487;-58
2022/09/28 02:15:24;;;;;;;5.45;1.40;;;19.70;69.30;;;;;;4957392;28;19961;-58
2022/09/28 02:17:50;;;;;;;4.63;1.25;;;19.70;69.30;;;;;;4944251;28;20031;-58
2022/09/28 02:20:16;;;;;;;5.05;1.30;;;19.70;69.30;;;;;;4958198;28;20066;-58
2022/09/28 02:22:48;;;;;;;4.22;1.33;;;19.70;69.30;;;;;;4961324;28;20105;-58
2022/09/28 02:25:27;;;;;;;3.35;1.08;;;19.70;69.40;;;;;;4958010;28;20118;-58
2022/09/28 02:27:58;;;;;;;5.80;1.60;;;19.70;69.40;;;;;;4963524;28;20035;-58
2022/09/28 02:30:24;;;;;;;4.18;1.27;;;19.70;69.30;;;;;;4943069;28;20565;-57
2022/09/28 02:32:52;;;;;;;4.18;1.30;;;19.60;69.40;;;;;;4960663;28;20032;-58
2022/09/28 02:35:18;;;;;;;5.55;1.23;;;19.70;69.40;;;;;;4958519;28;20573;-58
2022/09/28 02:37:43;;;;;;;4.72;1.35;;;19.70;69.40;;;;;;4939956;28;20023;-57
2022/09/28 02:40:13;;;;;;;4.53;1.30;;;19.70;69.40;;;;;;4957005;28;20070;-57
2022/09/28 02:42:53;;;;;;;4.57;1.17;;;19.70;69.40;;;;;;4957401;28;20415;-57
2022/09/28 02:45:40;;;;;;;4.55;1.33;;;19.70;69.40;;;;;;4940460;28;20055;-58
2022/09/28 02:48:12;;;;;;;4.47;1.30;;;19.60;69.40;;;;;;4954786;28;20511;-58
2022/09/28 02:50:41;;;;;;;4.85;1.40;;;19.70;69.40;;;;;;4961122;28;20046;-57
2022/09/28 02:53:10;;;;;;;3.22;1.23;;;19.60;69.40;;;;;;4955297;28;20448;-58
2022/09/28 02:55:35;;;;;;;3.03;1.15;;;19.60;69.40;;;;;;4958109;28;20102;-58
2022/09/28 02:58:08;;;;;;;4.82;1.30;;;19.60;69.40;;;;;;4956720;28;20522;-60
2022/09/28 03:00:40;;;;;;;3.67;1.10;;;19.60;69.40;;;;;;4959042;28;20027;-58
2022/09/28 03:03:16;;;;;;;2.35;1.02;;;19.60;69.40;;;;;;4942372;28;20137;-58
2022/09/28 03:06:03;;;;;;;3.10;1.20;;;19.60;69.40;;;;;;4962498;28;20479;-58
2022/09/28 03:08:47;;;;;;;4.15;1.27;;;19.60;69.40;;;;;;4956335;28;20503;-58
2022/09/28 03:11:18;;;;;;;3.03;1.20;;;19.60;69.40;;;;;;4956164;28;20408;-57
2022/09/28 03:13:43;;;;;;;3.75;1.17;;;19.60;69.40;;;;;;4957925;28;20031;-58
2022/09/28 03:16:17;;;;;;;3.40;1.08;;;19.60;69.40;;;;;;4956921;28;20062;-58
2022/09/28 03:18:42;;;;;;;2.72;0.77;;;19.60;69.40;;;;;;4956973;28;20049;-58
2022/09/28 03:21:11;;;;;;;4.00;1.08;;;19.60;69.40;;;;;;4958491;28;20616;-57
2022/09/28 03:23:37;;;;;;;5.05;1.40;;;19.60;69.40;;;;;;4978493;28;20038;-58
2022/09/28 03:26:03;;;;;;;3.22;1.10;;;19.60;69.40;;;;;;4960076;28;20162;-57
2022/09/28 03:28:28;;;;;;;4.28;1.25;;;19.60;69.40;;;;;;4961287;28;20037;-58
2022/09/28 03:30:54;;;;;;;1.95;1.00;;;19.60;69.40;;;;;;4959288;28;20392;-58
2022/09/28 03:33:20;;;;;;;3.63;1.15;;;19.60;69.40;;;;;;4963568;28;20121;-58
2022/09/28 03:35:47;;;;;;;3.65;1.27;;;19.50;69.30;;;;;;4960254;28;20062;-58
2022/09/28 03:38:13;;;;;;;3.20;1.10;;;19.60;69.40;;;;;;4958421;28;20110;-58
2022/09/28 03:40:39;;;;;;;2.75;0.93;;;19.60;69.30;;;;;;4956204;28;20515;-58
2022/09/28 03:43:04;;;;;;;1.63;0.85;;;19.60;69.30;;;;;;4958665;28;20496;-58
2022/09/28 03:45:30;;;;;;;3.13;1.13;;;19.50;69.30;;;;;;4963068;28;20030;-58
2022/09/28 03:47:56;;;;;;;3.58;1.42;;;19.50;69.30;;;;;;4962525;28;20093;-58
2022/09/28 03:50:21;;;;;;;2.90;1.00;;;19.60;69.30;;;;;;4966728;28;20083;-58
2022/09/28 03:52:47;;;;;;;3.25;1.00;;;19.50;69.20;;;;;;4964085;28;20039;-59
2022/09/28 03:55:13;;;;;;;3.85;1.10;;;19.50;69.30;;;;;;4964308;28;20038;-58
2022/09/28 03:57:38;;;;;;;3.63;1.30;;;19.50;69.30;;;;;;4962617;28;20066;-59
2022/09/28 04:00:04;;;;;;;3.40;1.08;;;19.50;69.30;;;;;;4960833;28;20491;-58
2022/09/28 04:02:30;;;;;;;3.80;1.00;;;19.50;69.20;;;;;;4964327;28;20062;-58
2022/09/28 04:04:56;;;;;;;2.65;1.10;;;19.50;69.30;;;;;;4963179;28;20094;-58
2022/09/28 04:07:21;;;;;;;3.78;1.02;;;19.50;69.20;;;;;;4964909;28;20031;-58
2022/09/28 04:09:47;;;;;;;3.03;1.08;;;19.50;69.30;;;;;;4964608;28;20164;-58
2022/09/28 04:12:13;;;;;;;2.33;0.90;;;19.50;69.20;;;;;;4965744;28;20035;-57
2022/09/28 04:14:38;;;;;;;2.65;0.88;;;19.50;69.20;;;;;;4963400;28;20043;-58
2022/09/28 04:17:06;;;;;;;2.38;0.88;;;19.50;69.20;;;;;;4962335;28;20039;-58
2022/09/28 04:19:31;;;;;;;1.98;0.80;;;19.50;70.20;;;;;;4960958;28;20031;-59
2022/09/28 04:21:57;;;;;;;2.85;1.08;;;19.50;69.10;;;;;;4961901;28;20031;-59
2022/09/28 04:24:23;;;;;;;2.70;1.15;;;19.50;69.10;;;;;;4964066;28;20695;-58
2022/09/28 04:26:48;;;;;;;3.90;1.35;;;19.50;69.10;;;;;;4960210;28;20110;-58
2022/09/28 04:29:14;;;;;;;4.22;1.33;;;19.50;69.10;;;;;;4966168;28;20505;-58
2022/09/28 04:31:50;;;;;;;2.88;1.10;;;19.50;69.10;;;;;;4967541;28;20059;-58
2022/09/28 04:34:18;;;;;;;3.25;1.00;;;19.40;69.10;;;;;;4948037;28;20145;-58
2022/09/28 04:36:44;;;;;;;4.15;1.45;;;19.50;69.10;;;;;;4963107;28;20074;-58
2022/09/28 04:39:13;;;;;;;3.35;1.15;;;19.40;69.10;;;;;;4960622;28;20442;-58
2022/09/28 04:41:39;;;;;;;3.25;0.90;;;19.40;69.10;;;;;;4960988;28;20019;-58
2022/09/28 04:44:05;;;;;;;2.15;1.00;;;19.50;69.20;;;;;;4967664;28;20039;-58
2022/09/28 04:46:31;;;;;;;3.53;1.13;;;19.40;69.10;;;;;;4961441;28;20042;-58
2022/09/28 04:48:57;;;;;;;2.88;1.00;;;19.40;69.10;;;;;;4960607;28;20038;-58
2022/09/28 04:51:23;;;;;;;2.92;1.02;;;19.50;69.10;;;;;;4962997;28;20041;-58
2022/09/28 04:53:48;;;;;;;3.50;1.00;;;19.40;69.10;;;;;;4961328;28;20050;-58
2022/09/28 04:56:14;;;;;;;2.22;0.80;;;19.40;69.10;;;;;;4961254;28;20035;-58
2022/09/28 04:58:40;;;;;;;2.60;1.00;;;19.40;69.10;;;;;;4962092;28;20038;-58
2022/09/28 05:01:08;;;;;;;4.47;1.10;;;19.40;69.10;;;;;;4966506;28;20019;-58
2022/09/28 05:03:34;;;;;;;4.25;0.90;;;19.40;69.10;;;;;;4967746;28;20035;-58
2022/09/28 05:06:00;;;;;;;2.92;1.10;;;19.40;69.10;;;;;;4967980;28;20566;-58
2022/09/28 05:08:26;;;;;;;1.73;1.00;;;19.40;69.10;;;;;;4967253;28;20030;-58
2022/09/28 05:10:59;;;;;;;2.88;0.90;;;19.40;69.10;;;;;;4964876;28;20507;-58
2022/09/28 05:13:24;;;;;;;3.53;1.00;;;19.40;69.10;;;;;;4967126;28;20054;-58
2022/09/28 05:15:52;;;;;;;3.17;0.90;;;19.40;69.10;;;;;;4960836;28;20857;-58
2022/09/28 05:18:17;;;;;;;4.22;1.33;;;19.40;69.10;;;;;;4965679;28;20521;-58
2022/09/28 05:20:43;;;;;;;4.35;1.10;;;19.40;69.40;;;;;;4962902;28;20026;-58
2022/09/28 05:23:10;;;;;;;3.08;1.10;;;19.40;69.40;;;;;;4961581;28;20097;-58
2022/09/28 05:25:36;;;;;;;3.42;1.08;;;19.30;69.30;;;;;;4960200;28;20027;-58
2022/09/28 05:28:02;;;;;;;3.70;1.10;;;19.40;69.40;;;;;;4960090;28;20098;-58
2022/09/28 05:30:28;;;;;;;5.65;1.27;;;19.40;69.40;;;;;;4959278;28;20047;-58
2022/09/28 05:32:53;;;;;;;11.30;1.50;;;19.40;69.50;;;;;;4959249;28;20062;-60
2022/09/28 05:35:19;;;;;;;6.35;1.70;;;19.40;70.00;;;;;;4963084;28;20027;-59
2022/09/28 05:37:45;;;;;;;3.33;1.10;;;19.40;70.60;;;;;;4966988;28;20034;-59
2022/09/28 05:40:11;;;;;;;3.58;1.30;;;19.40;70.50;;;;;;4964829;28;20027;-59
2022/09/28 05:42:38;;;;;;;7.93;1.58;;;19.40;70.40;;;;;;4960484;28;20115;-59
2022/09/28 05:45:05;;;;;;;6.18;1.50;;;19.50;70.50;;;;;;4959163;28;20035;-58
2022/09/28 05:47:31;;;;;;;6.40;1.27;;;19.40;70.70;;;;;;4960518;28;20032;-59
2022/09/28 05:49:56;;;;;;;5.57;1.30;;;19.40;70.60;;;;;;4957413;28;20043;-59
2022/09/28 05:52:22;;;;;;;6.65;1.20;;;19.40;70.60;;;;;;4963337;28;20081;-59
2022/09/28 05:54:47;;;;;;;6.18;1.30;;;19.40;70.60;;;;;;4959628;28;20031;-59
2022/09/28 05:57:13;;;;;;;3.95;1.27;;;19.40;70.40;;;;;;4959890;28;20037;-59
2022/09/28 05:59:39;;;;;;;4.32;1.35;;;19.40;70.40;;;;;;4964000;28;20030;-59
2022/09/28 06:02:04;;;;;;;5.88;1.20;;;19.40;70.40;;;;;;4960176;28;20069;-59
2022/09/28 06:04:30;;;;;;;5.32;1.13;;;19.40;70.40;;;;;;4959902;28;20709;-58
2022/09/28 06:06:56;;;;;;;5.07;1.25;;;19.40;70.50;;;;;;4955174;28;20035;-59
2022/09/28 06:09:24;;;;;;;4.55;1.50;;;19.40;70.40;;;;;;4960511;28;20035;-59
2022/09/28 06:11:51;;;;;;;6.45;1.40;;;19.40;70.40;;;;;;4960979;28;20408;-58
2022/09/28 06:14:16;;;;;;;5.13;1.40;;;19.40;70.40;;;;;;4961346;28;20403;-59
2022/09/28 06:16:42;;;;;;;7.38;1.50;;;19.40;70.40;;;;;;4961607;28;20030;-58
2022/09/28 06:19:08;;;;;;;3.72;1.15;;;19.30;70.30;;;;;;4962805;28;20050;-59
2022/09/28 06:21:34;;;;;;;5.75;1.30;;;19.40;70.40;;;;;;4958665;28;20046;-58
2022/09/28 06:24:01;;;;;;;5.57;1.50;;;19.40;70.50;;;;;;4958013;28;20407;-59
2022/09/28 06:26:26;;;;;;;3.42;1.30;;;19.30;70.50;;;;;;4962278;28;20042;-59
2022/09/28 06:28:52;;;;;;;4.13;1.30;;;19.30;70.60;;;;;;4962449;28;20380;-59
2022/09/28 06:31:22;;;;;;;4.50;1.17;;;19.30;70.60;;;;;;4959982;28;21239;-59
2022/09/28 06:33:48;;;;;;;6.38;1.40;;;19.30;70.50;;;;;;4962165;28;20035;-59
2022/09/28 06:36:14;;;;;;;5.43;1.40;;;19.30;70.50;;;;;;4960410;28;20066;-59
2022/09/28 06:38:39;;;;;;;5.55;1.30;;;19.30;70.60;;;;;;4957955;28;20045;-59
2022/09/28 06:41:05;;;;;;;4.03;1.10;;;19.30;70.50;;;;;;4962675;28;20027;-59
2022/09/28 06:43:32;;;;;;;4.50;1.20;;;19.30;70.50;;;;;;4967325;28;20042;-58
2022/09/28 06:45:58;;;;;;;3.88;1.10;;;19.30;70.50;;;;;;4961055;28;20034;-59
2022/09/28 06:48:23;;;;;;;3.75;1.20;;;19.30;70.60;;;;;;4958578;28;20439;-58
2022/09/28 06:50:49;;;;;;;5.25;1.23;;;19.30;70.50;;;;;;4962014;28;20452;-59
2022/09/28 06:53:15;;;;;;;5.45;1.30;;;19.30;70.50;;;;;;4959388;28;20899;-59
2022/09/28 06:55:43;;;;;;;4.35;1.30;;;19.30;70.60;;;;;;4958799;28;20139;-59
2022/09/28 06:58:13;;;;;;;7.00;1.55;;;19.30;70.50;;;;;;4960913;28;20034;-59
2022/09/28 07:00:39;;;;;;;4.38;1.27;;;19.30;70.50;;;;;;4960912;28;20046;-59
2022/09/28 07:03:15;;;;;;;3.72;1.20;;;19.30;70.50;;;;;;4958736;28;20039;-59
2022/09/28 07:05:42;;;;;;;4.68;1.30;;;19.30;70.50;;;;;;4957182;28;20033;-59
2022/09/28 07:08:08;;;;;;;3.17;1.20;;;19.30;70.50;;;;;;4964052;28;20039;-59
2022/09/28 07:10:34;;;;;;;4.32;1.30;;;19.30;70.50;;;;;;4960932;28;20398;-59
2022/09/28 07:13:03;;;;;;;4.90;1.63;;;19.30;70.60;;;;;;4960549;28;20376;-59
2022/09/28 07:15:29;;;;;;;4.53;1.27;;;19.30;71.60;;;;;;4960862;28;20081;-59
2022/09/28 07:17:59;;;;;;;6.43;1.10;;;19.30;70.80;;;;;;4963026;28;20031;-59
2022/09/28 07:20:25;;;;;;;4.53;1.20;;;19.30;70.80;;;;;;4962138;28;20046;-58
2022/09/28 07:23:00;;;;;;;6.25;1.35;;;19.30;70.80;;;;;;4964489;28;20023;-59
2022/09/28 07:25:28;;;;;;;3.92;1.30;;;19.30;70.90;;;;;;4959252;28;20066;-59
2022/09/28 07:27:56;;;;;;;4.50;1.20;;;19.30;70.80;;;;;;4956282;28;20031;-59
2022/09/28 07:30:22;;;;;;;5.88;1.20;;;19.30;70.80;;;;;;4957099;28;20039;-59
2022/09/28 07:32:48;;;;;;;5.53;1.35;;;19.30;70.90;;;;;;4960532;28;20033;-59
2022/09/28 07:35:14;;;;;;;5.78;1.20;;;19.30;71.10;;;;;;4962168;28;20141;-59
2022/09/28 07:37:39;;;;;;;5.95;1.17;;;19.40;71.10;;;;;;4962296;28;20090;-58
2022/09/28 07:42:51;;;;;;;7.15;1.20;;;19.40;71.30;;;;;;4975283;28;20050;-59
2022/09/28 07:45:16;;;;;;;5.13;1.05;;;19.40;71.20;;;;;;4956846;28;20047;-59
2022/09/28 07:47:42;;;;;;;5.60;1.20;;;19.40;71.20;;;;;;4961344;28;20034;-58
2022/09/28 07:50:08;;;;;;;6.88;1.20;;;19.40;71.30;;;;;;4959617;28;20036;-59
2022/09/28 07:52:35;;;;;;;5.80;1.17;;;19.40;71.30;;;;;;4961399;28;20027;-59
2022/09/28 07:55:01;;;;;;;4.93;1.23;;;19.40;71.10;;;;;;4958222;28;20075;-58
2022/09/28 07:57:27;;;;;;;3.10;1.00;;;19.40;71.00;;;;;;4958116;28;20028;-58
2022/09/28 07:59:52;;;;;;;5.07;1.25;;;19.40;71.10;;;;;;4964257;28;20042;-59
2022/09/28 08:02:21;;;;;;;3.83;0.90;;;19.40;70.80;;;;;;4962793;28;20565;-58
2022/09/28 08:04:47;;;;;;;4.78;1.20;;;19.40;70.80;;;;;;4960598;28;20516;-59
2022/09/28 08:07:14;;;;;;;3.55;1.15;;;19.40;71.00;;;;;;4960861;28;20114;-58
2022/09/28 08:09:41;;;;;;;4.57;1.00;;;19.40;70.80;;;;;;4957106;28;20151;-58
2022/09/28 08:12:07;;;;;;;7.90;1.48;;;19.40;71.10;;;;;;4959902;28;20027;-58
2022/09/28 08:14:33;;;;;;;5.00;1.10;;;19.40;71.00;;;;;;4960102;28;20026;-58
2022/09/28 08:17:02;;;;;;;4.72;1.20;;;19.40;70.80;;;;;;4960957;28;20042;-58
2022/09/28 08:21:43;;;;;;;4.20;1.00;;;19.40;70.80;;;;;;4966248;28;20023;-59
2022/09/28 08:22:19;;;;;;;3.50;1.17;;;19.50;71.10;;;;;;4957933;28;20027;-58
2022/09/28 08:24:45;;;;;;;3.05;1.10;;;19.40;70.80;;;;;;4955773;28;20091;-58
2022/09/28 08:27:11;;;;;;;5.85;1.10;;;19.50;71.00;;;;;;4959015;28;21141;-58
2022/09/28 08:29:37;;;;;;;4.28;1.15;;;19.50;70.80;;;;;;4960942;28;21021;-59
2022/09/28 08:32:06;;;;;;;5.82;1.55;;;19.50;70.80;;;;;;4959559;28;20061;-59
2022/09/28 08:34:34;;;;;;;3.83;1.33;;;19.50;70.80;;;;;;4962699;28;20055;-59
2022/09/28 08:37:00;;;;;;;2.42;1.10;;;19.50;70.80;;;;;;4963975;28;20031;-59
2022/09/28 08:39:26;;;;;;;3.70;1.20;;;19.50;70.80;;;;;;4960224;28;20031;-59
2022/09/28 08:42:29;;;;;;;7.13;1.60;;;19.50;70.70;;;;;;4961542;28;20050;-59
2022/09/28 08:44:57;;;;;;;3.03;1.15;;;19.50;70.80;;;;;;4938590;29;20070;-58
2022/09/28 08:50:21;;;;;;;4.43;1.10;;;19.50;70.80;;;;;;4941450;29;20047;-59
2022/09/28 08:52:49;;;;;;;4.53;1.35;;;19.60;70.90;;;;;;4941027;29;20035;-58
2022/09/28 08:55:27;;;;;;;2.53;1.00;;;19.50;70.80;;;;;;4938717;29;20035;-58
2022/09/28 08:58:23;;;;;;;6.30;1.30;;;19.60;70.70;;;;;;4931954;29;20043;-58
2022/09/28 09:00:53;;;;;;;4.28;1.10;;;19.50;70.70;;;;;;4921719;29;20755;-58
2022/09/28 09:03:31;;;;;;;3.97;1.20;;;19.50;70.80;;;;;;4937213;29;20131;-58
2022/09/28 09:06:15;;;;;;;4.35;1.40;;;19.50;70.60;;;;;;4940281;29;20054;-58
2022/09/28 09:08:50;;;;;;;3.70;1.20;;;19.50;70.70;;;;;;4927083;29;20542;-58
2022/09/28 09:11:26;;;;;;;3.30;1.20;;;19.50;70.70;;;;;;4942534;29;20039;-59
2022/09/28 09:14:19;;;;;;;6.20;1.60;;;19.50;70.60;;;;;;4940823;29;20090;-59
2022/09/28 09:16:48;;;;;;;2.28;1.13;;;19.60;70.70;;;;;;4943657;29;20035;-59
2022/09/28 09:19:39;;;;;;;5.95;1.42;;;19.60;70.70;;;;;;4937248;29;20028;-59
2022/09/28 09:22:10;;;;;;;5.65;1.67;;;19.50;70.60;;;;;;4953527;28;20073;-58
2022/09/28 09:24:55;;;;;;;4.55;1.40;;;19.60;70.70;;;;;;4965602;28;20094;-59
2022/09/28 09:27:40;;;;;;;4.88;1.25;;;19.60;70.50;;;;;;4948773;28;20088;-58
2022/09/28 09:30:15;;;;;;;4.72;1.08;;;19.60;70.50;;;;;;4956294;28;20043;-58
2022/09/28 09:32:52;;;;;;;4.18;1.33;;;19.60;70.50;;;;;;4968097;28;20035;-58
2022/09/28 09:35:40;;;;;;;4.38;1.23;;;19.60;70.50;;;;;;4982963;28;20027;-59
2022/09/28 09:38:26;;;;;;;4.85;1.38;;;19.60;70.50;;;;;;4959543;28;20039;-59
2022/09/28 09:40:58;;;;;;;3.53;1.10;;;19.60;70.50;;;;;;4971986;28;20050;-58
2022/09/28 09:43:57;;;;;;;5.05;1.20;;;19.60;70.50;;;;;;4969872;28;22143;-59
2022/09/28 09:46:42;;;;;;;7.40;1.58;;;19.60;70.50;;;;;;4986926;28;20079;-58
2022/09/28 09:49:19;;;;;;;5.45;1.50;;;19.60;70.50;;;;;;4958223;28;20798;-59
2022/09/28 09:51:58;;;;;;;4.32;1.27;;;19.70;70.50;;;;;;4958048;28;20035;-58
2022/09/28 09:54:50;;;;;;;4.65;1.20;;;19.60;70.50;;;;;;4960780;28;20488;-58
2022/09/28 09:57:20;;;;;;;3.58;1.30;;;19.70;70.60;;;;;;4957032;28;20047;-58
2022/09/28 09:59:46;;;;;;;6.28;1.40;;;19.60;70.50;;;;;;4956455;28;20027;-59
2022/09/28 10:02:25;;;;;;;5.07;1.45;;;19.70;70.50;;;;;;4957388;28;20038;-59
2022/09/28 10:05:03;;;;;;;7.18;1.55;;;19.70;70.30;;;;;;4960249;28;20086;-59
2022/09/28 10:07:48;;;;;;;6.90;1.30;;;19.70;70.20;;;;;;4951348;28;20050;-59
2022/09/28 10:10:29;;;;;;;6.30;1.30;;;19.70;70.30;;;;;;4959828;28;20066;-59
2022/09/28 10:12:55;;;;;;;7.40;1.67;;;19.70;70.50;;;;;;4942348;28;20026;-60
2022/09/28 10:15:26;;;;;;;3.88;1.20;;;19.70;70.80;;;;;;4961273;28;20505;-59
2022/09/28 10:17:55;;;;;;;3.20;1.13;;;19.70;70.70;;;;;;4965306;28;20285;-59
2022/09/28 10:20:21;;;;;;;5.72;1.35;;;19.70;71.10;;;;;;4966905;28;20042;-59
2022/09/28 10:22:48;;;;;;;6.50;1.10;;;19.70;71.10;;;;;;4982701;28;20041;-59
2022/09/28 10:25:14;;;;;;;5.28;1.25;;;19.70;71.30;;;;;;4966701;28;20069;-59
2022/09/28 10:27:45;;;;;;;3.53;1.10;;;19.70;71.70;;;;;;4964004;28;20513;-59
2022/09/28 10:30:19;;;;;;;3.92;1.33;;;19.70;71.70;;;;;;4972846;28;20635;-59
2022/09/28 10:32:46;;;;;;;5.53;1.23;;;19.70;71.70;;;;;;4968848;28;20027;-59
2022/09/28 10:35:17;;;;;;;7.55;1.42;;;19.70;71.70;;;;;;4962921;28;20690;-58
2022/09/28 10:37:51;;;;;;;3.72;1.15;;;19.70;71.30;;;;;;4966327;28;20023;-59
2022/09/28 10:40:45;;;;;;;5.30;1.42;;;19.70;71.50;;;;;;4963325;28;20049;-59
2022/09/28 10:43:20;;;;;;;1.92;1.00;;;19.70;71.50;;;;;;4955354;28;20047;-59
2022/09/28 10:45:46;;;;;;;4.38;1.40;;;19.70;71.80;;;;;;4969291;28;20038;-58
2022/09/28 10:48:19;;;;;;;4.45;1.25;;;19.70;71.80;;;;;;4963192;28;20077;-59
2022/09/28 10:50:57;;;;;;;6.32;1.40;;;19.70;71.70;;;;;;4967443;28;20030;-59
2022/09/28 10:53:22;;;;;;;4.25;1.23;;;19.70;71.70;;;;;;4943822;28;20037;-59
2022/09/28 10:56:18;;;;;;;3.13;1.13;;;19.70;71.70;;;;;;4967559;28;20038;-57
2022/09/28 10:58:44;;;;;;;4.80;1.30;;;19.70;71.70;;;;;;4959114;28;20130;-58
2022/09/28 11:01:14;;;;;;;6.28;1.33;;;19.80;71.60;;;;;;4963337;28;20105;-59
2022/09/28 11:03:57;;;;;;;3.28;1.20;;;19.70;72.00;;;;;;4963827;28;20043;-59
2022/09/28 11:06:32;;;;;;;4.18;1.20;;;19.70;71.80;;;;;;4960061;28;20059;-59
2022/09/28 11:08:59;;;;;;;4.95;1.55;;;19.80;71.90;;;;;;4953689;28;20027;-59
2022/09/28 11:11:25;;;;;;;7.93;1.60;;;19.70;72.00;;;;;;4967995;28;20030;-59
2022/09/28 11:14:00;;;;;;;4.93;1.50;;;19.70;72.00;;;;;;4961103;28;20126;-59
2022/09/28 11:16:31;;;;;;;7.32;1.40;;;19.70;72.10;;;;;;4964990;28;20019;-59
2022/09/28 11:19:02;;;;;;;3.90;1.38;;;19.80;72.10;;;;;;4960911;28;20030;-60
2022/09/28 11:21:30;;;;;;;5.00;1.48;;;19.80;71.70;;;;;;4960352;28;20364;-59
2022/09/28 11:24:09;;;;;;;5.68;1.58;;;19.80;71.90;;;;;;4957853;28;20053;-58
2022/09/28 11:26:40;;;;;;;7.07;1.45;;;19.80;72.10;;;;;;4961341;28;20105;-59
2022/09/28 11:29:15;;;;;;;9.25;2.03;;;19.90;72.00;;;;;;4959986;28;20502;-59
2022/09/28 11:31:42;;;;;;;5.07;1.55;;;19.90;72.10;;;;;;4961324;28;20074;-60
2022/09/28 11:34:25;;;;;;;6.57;1.52;;;19.90;72.10;;;;;;4964035;28;20114;-60
2022/09/28 11:37:30;;;;;;;7.95;1.70;;;19.90;72.10;;;;;;4959818;28;20104;-59
2022/09/28 11:40:17;;;;;;;6.32;1.60;;;19.90;72.10;;;;;;4958765;28;20081;-60
2022/09/28 11:42:59;;;;;;;6.57;1.48;;;19.90;72.30;;;;;;4961121;28;20431;-60
2022/09/28 11:45:48;;;;;;;6.78;1.58;;;19.90;72.10;;;;;;4964822;28;20028;-59
2022/09/28 11:48:15;;;;;;;4.97;1.33;;;19.90;72.30;;;;;;4966343;28;20090;-60
2022/09/28 11:50:47;;;;;;;7.75;1.55;;;20.00;72.30;;;;;;4942496;28;20038;-60
2022/09/28 11:53:16;;;;;;;5.85;1.50;;;20.00;72.00;;;;;;4963437;28;20264;-59
2022/09/28 11:55:56;;;;;;;5.63;1.20;;;20.00;72.20;;;;;;4959924;28;20034;-59
2022/09/28 11:58:31;;;;;;;6.18;1.58;;;20.00;72.10;;;;;;4958822;28;20057;-59
2022/09/28 12:01:22;;;;;;;5.15;1.25;;;20.00;72.20;;;;;;4944268;28;20041;-59
2022/09/28 12:04:12;;;;;;;8.25;1.48;;;20.00;71.90;;;;;;4959066;28;20526;-59
2022/09/28 12:06:40;;;;;;;5.53;1.30;;;20.00;71.90;;;;;;4964788;28;20153;-59
2022/09/28 12:09:35;;;;;;;5.68;1.63;;;20.00;72.00;;;;;;4944478;28;20062;-59
2022/09/28 12:12:02;;;;;;;6.38;1.52;;;20.00;72.00;;;;;;4949631;28;20050;-59
2022/09/28 12:14:30;;;;;;;8.63;1.48;;;20.10;71.90;;;;;;4963989;28;20023;-58
2022/09/28 12:17:03;;;;;;;6.72;1.50;;;20.10;71.90;;;;;;4944301;28;20644;-58
2022/09/28 12:19:36;;;;;;;5.50;1.33;;;20.10;72.10;;;;;;4943447;28;20039;-59
2022/09/28 12:22:23;;;;;;;7.55;1.55;;;20.10;72.30;;;;;;4943344;28;20023;-58
2022/09/28 12:24:50;;;;;;;5.82;1.33;;;20.10;72.30;;;;;;4968084;28;20581;-59
2022/09/28 12:27:34;;;;;;;4.40;1.20;;;20.10;72.20;;;;;;4962523;28;20028;-59
2022/09/28 12:30:19;;;;;;;6.65;1.50;;;20.10;72.10;;;;;;4962415;28;20142;-59
2022/09/28 12:32:58;;;;;;;6.32;1.42;;;20.10;72.10;;;;;;4983999;28;20053;-59
2022/09/28 12:35:39;;;;;;;6.00;1.33;;;20.10;72.00;;;;;;4962947;28;20155;-60
2022/09/28 12:38:20;;;;;;;6.90;1.40;;;20.00;72.00;;;;;;4959950;28;20034;-59
2022/09/28 12:40:45;;;;;;;5.40;1.27;;;20.00;72.10;;;;;;4961678;28;20122;-59
2022/09/28 12:43:18;;;;;;;5.47;1.48;;;20.00;72.00;;;;;;4958859;28;20582;-60
2022/09/28 12:46:04;;;;;;;6.18;1.75;;;20.10;72.10;;;;;;4967331;28;20031;-59
2022/09/28 12:48:44;;;;;;;5.60;1.30;;;20.20;72.20;;;;;;4960986;28;20030;-59
2022/09/28 12:51:19;;;;;;;5.00;1.27;;;20.30;71.90;;;;;;4946690;28;20431;-59
2022/09/28 12:54:21;;;;;;;8.10;1.50;;;20.40;71.70;;;;;;4961512;28;20071;-60
2022/09/28 12:57:05;;;;;;;5.32;1.48;;;20.50;71.70;;;;;;4965243;28;20041;-59
2022/09/28 12:59:37;;;;;;;6.10;1.40;;;20.60;71.50;;;;;;4959539;28;20019;-60
2022/09/28 13:02:23;;;;;;;3.92;1.42;;;20.60;71.50;;;;;;4965150;28;20066;-60
2022/09/28 13:04:55;;;;;;;5.05;1.40;;;20.60;71.60;;;;;;4966966;28;20129;-59
2022/09/28 13:07:31;;;;;;;5.63;1.20;;;20.50;71.70;;;;;;4961748;28;20082;-59
2022/09/28 13:10:22;;;;;;;6.57;1.42;;;20.50;71.60;;;;;;4961201;28;20042;-59
2022/09/28 13:13:16;;;;;;;5.95;1.60;;;20.50;71.90;;;;;;4960453;28;20030;-59
2022/09/28 13:15:49;;;;;;;5.93;1.40;;;20.50;71.90;;;;;;4961083;28;20035;-59
2022/09/28 13:18:20;;;;;;;4.28;1.40;;;20.50;71.80;;;;;;4959703;28;20023;-59